createdAt,value
2018-05-16T00:00:48.742Z,99.90
2018-05-16T00:03:16.388Z,99.90
2018-05-16T00:05:44.137Z,99.90
2018-05-16T00:08:12.719Z,99.90
2018-05-16T00:10:40.418Z,99.90
2018-05-16T00:13:08.116Z,99.90
2018-05-16T00:15:35.806Z,99.90
2018-05-16T00:18:04.468Z,99.90
2018-05-16T00:20:32.196Z,99.90
2018-05-16T00:22:59.893Z,99.90
2018-05-16T00:25:27.561Z,99.90
2018-05-16T00:27:56.144Z,99.90
2018-05-16T00:30:23.783Z,99.90
2018-05-16T00:32:51.465Z,99.90
2018-05-16T00:35:20.650Z,99.90
2018-05-16T00:37:48.330Z,99.90
2018-05-16T00:40:15.998Z,99.90
2018-05-16T00:42:43.687Z,99.90
2018-05-16T00:45:12.196Z,99.90
2018-05-16T00:47:39.883Z,99.90
2018-05-16T00:50:07.630Z,99.90
2018-05-16T00:52:35.313Z,99.90
2018-05-16T00:55:03.081Z,99.90
2018-05-16T00:57:30.834Z,99.90
2018-05-16T00:59:58.491Z,99.90
2018-05-16T01:02:26.253Z,99.90
2018-05-16T01:04:54.020Z,99.90
2018-05-16T01:07:21.690Z,99.90
2018-05-16T01:09:49.551Z,99.90
2018-05-16T01:12:17.312Z,99.90
2018-05-16T01:14:45.093Z,99.90
2018-05-16T01:17:12.756Z,99.90
2018-05-16T01:19:40.438Z,99.90
2018-05-16T01:22:08.104Z,99.90
2018-05-16T01:24:35.798Z,99.90
2018-05-16T01:27:04.324Z,99.90
2018-05-16T01:29:32.077Z,99.90
2018-05-16T01:31:59.767Z,99.90
2018-05-16T01:34:28.324Z,99.90
2018-05-16T01:36:56.013Z,99.90
2018-05-16T01:39:23.706Z,99.90
2018-05-16T01:41:51.377Z,99.90
2018-05-16T01:44:19.908Z,99.90
2018-05-16T01:46:47.660Z,99.90
2018-05-16T01:49:19.141Z,99.90
2018-05-16T01:51:46.808Z,99.90
2018-05-16T01:54:14.540Z,99.90
2018-05-16T01:56:42.308Z,99.90
2018-05-16T01:59:09.988Z,99.90
2018-05-16T02:01:37.667Z,99.90
2018-05-16T02:04:05.393Z,99.90
2018-05-16T02:06:33.068Z,99.90
2018-05-16T02:09:00.832Z,99.90
2018-05-16T02:11:28.501Z,99.90
2018-05-16T02:13:56.180Z,99.90
2018-05-16T02:16:23.909Z,99.90
2018-05-16T02:18:53.055Z,99.90
2018-05-16T02:21:20.708Z,99.90
2018-05-16T02:23:48.442Z,99.90
2018-05-16T02:26:16.118Z,99.90
2018-05-16T02:28:43.879Z,99.90
2018-05-16T02:31:11.629Z,99.90
2018-05-16T02:33:39.396Z,99.90
2018-05-16T02:36:07.099Z,99.90
2018-05-16T02:38:34.820Z,99.90
2018-05-16T02:41:02.514Z,99.90
2018-05-16T02:43:30.182Z,99.90
2018-05-16T02:45:57.941Z,99.90
2018-05-16T02:48:25.608Z,99.90
2018-05-16T02:50:53.296Z,99.90
2018-05-16T02:53:20.971Z,99.90
2018-05-16T02:55:49.493Z,99.90
2018-05-16T02:58:17.291Z,99.90
2018-05-16T03:00:44.986Z,99.90
2018-05-16T03:03:13.537Z,99.90
2018-05-16T03:05:41.192Z,99.90
2018-05-16T03:08:08.860Z,99.90
2018-05-16T03:10:36.597Z,99.90
2018-05-16T03:13:05.050Z,99.90
2018-05-16T03:15:33.544Z,99.90
2018-05-16T03:18:01.212Z,99.90
2018-05-16T03:20:28.903Z,99.90
2018-05-16T03:22:56.590Z,99.90
2018-05-16T03:25:24.409Z,99.90
2018-05-16T03:27:52.065Z,99.90
2018-05-16T03:30:19.790Z,99.90
2018-05-16T03:32:47.541Z,99.90
2018-05-16T03:35:15.312Z,99.90
2018-05-16T03:37:42.976Z,99.90
2018-05-16T03:40:10.771Z,99.90
2018-05-16T03:42:38.453Z,99.90
2018-05-16T03:45:06.150Z,99.90
2018-05-16T03:47:33.818Z,99.90
2018-05-16T03:50:01.494Z,99.90
2018-05-16T03:52:29.171Z,99.90
2018-05-16T03:54:56.927Z,99.90
2018-05-16T03:57:30.562Z,99.90
2018-05-16T04:00:04.123Z,99.90
2018-05-16T04:02:37.737Z,99.90
2018-05-16T04:05:05.495Z,99.90
2018-05-16T04:07:33.184Z,99.90
2018-05-16T04:10:00.854Z,99.90
2018-05-16T04:12:28.542Z,99.90
2018-05-16T04:14:57.074Z,99.90
2018-05-16T04:17:24.836Z,99.90
2018-05-16T04:19:52.539Z,99.90
2018-05-16T04:22:21.303Z,99.90
2018-05-16T04:24:49.270Z,99.90
2018-05-16T04:27:17.207Z,99.90
2018-05-16T04:29:44.903Z,99.90
2018-05-16T04:32:12.645Z,99.90
2018-05-16T04:34:40.322Z,99.90
2018-05-16T04:37:08.098Z,99.90
2018-05-16T04:39:35.724Z,99.90
2018-05-16T04:42:03.421Z,99.90
2018-05-16T04:44:31.114Z,99.90
2018-05-16T04:46:59.556Z,99.90
2018-05-16T04:49:27.230Z,99.90
2018-05-16T04:51:54.965Z,99.90
2018-05-16T04:54:22.656Z,99.90
2018-05-16T04:56:50.461Z,99.90
2018-05-16T04:59:18.181Z,99.90
2018-05-16T05:01:45.952Z,99.90
2018-05-16T05:04:13.585Z,99.90
2018-05-16T05:06:41.267Z,99.90
2018-05-16T05:09:08.938Z,99.90
2018-05-16T05:11:36.646Z,99.90
2018-05-16T05:14:04.307Z,99.90
2018-05-16T05:16:32.758Z,99.90
2018-05-16T05:19:00.425Z,99.90
2018-05-16T05:21:28.117Z,99.90
2018-05-16T05:23:56.668Z,99.90
2018-05-16T05:26:24.424Z,99.90
2018-05-16T05:28:52.673Z,99.90
2018-05-16T05:31:20.469Z,99.90
2018-05-16T05:33:48.130Z,99.90
2018-05-16T05:36:15.814Z,99.90
2018-05-16T05:38:43.559Z,99.90
2018-05-16T05:41:11.221Z,99.90
2018-05-16T05:43:38.907Z,99.90
2018-05-16T05:46:07.572Z,99.90
2018-05-16T05:48:35.240Z,99.90
2018-05-16T05:51:02.907Z,99.90
2018-05-16T05:53:30.584Z,99.90
2018-05-16T05:55:59.017Z,99.90
2018-05-16T05:58:26.710Z,99.90
2018-05-16T06:00:54.441Z,99.90
2018-05-16T06:03:22.133Z,99.90
2018-05-16T06:05:49.860Z,99.90
2018-05-16T06:08:17.559Z,99.90
2018-05-16T06:10:45.294Z,99.90
2018-05-16T06:13:12.982Z,99.90
2018-05-16T06:15:40.718Z,99.90
2018-05-16T06:18:08.408Z,99.90
2018-05-16T06:20:36.153Z,99.90
2018-05-16T06:23:03.910Z,99.90
2018-05-16T06:25:31.693Z,99.90
2018-05-16T06:27:59.453Z,99.90
2018-05-16T06:30:27.206Z,99.90
2018-05-16T06:32:54.897Z,99.90
2018-05-16T06:35:22.551Z,99.90
2018-05-16T06:37:50.309Z,99.90
2018-05-16T06:40:17.972Z,99.90
2018-05-16T06:42:45.717Z,99.90
2018-05-16T06:45:13.381Z,99.90
2018-05-16T06:47:41.056Z,99.90
2018-05-16T06:50:08.809Z,99.90
2018-05-16T06:52:36.503Z,99.90
2018-05-16T06:55:04.249Z,99.90
2018-05-16T06:57:31.938Z,99.90
2018-05-16T06:59:59.627Z,99.90
2018-05-16T07:02:27.296Z,99.90
2018-05-16T07:04:55.743Z,99.90
2018-05-16T07:07:23.437Z,99.90
2018-05-16T07:09:51.888Z,99.90
2018-05-16T07:12:19.622Z,99.90
2018-05-16T07:14:47.308Z,99.90
2018-05-16T07:17:14.973Z,99.90
2018-05-16T07:19:42.713Z,99.90
2018-05-16T07:22:10.483Z,99.90
2018-05-16T07:24:38.153Z,99.90
2018-05-16T07:27:05.830Z,99.90
2018-05-16T07:29:33.516Z,99.90
2018-05-16T07:32:01.254Z,99.90
2018-05-16T07:34:28.890Z,99.90
2018-05-16T07:36:56.553Z,99.90
2018-05-16T07:39:24.233Z,99.90
2018-05-16T07:41:51.912Z,99.90
2018-05-16T07:44:19.648Z,99.90
2018-05-16T07:46:47.418Z,99.90
2018-05-16T07:49:15.088Z,99.90
2018-05-16T07:51:42.839Z,99.90
2018-05-16T07:54:10.616Z,99.90
2018-05-16T07:56:38.273Z,99.90
2018-05-16T07:59:05.966Z,99.90
2018-05-16T08:01:33.634Z,99.90
2018-05-16T08:04:01.317Z,99.90
2018-05-16T08:06:29.749Z,99.90
2018-05-16T08:08:57.504Z,99.90
2018-05-16T08:11:25.198Z,99.90
2018-05-16T08:13:52.901Z,99.90
2018-05-16T08:16:21.330Z,99.90
2018-05-16T08:18:49.108Z,99.90
2018-05-16T08:21:16.839Z,99.90
2018-05-16T08:23:44.526Z,99.90
2018-05-16T08:26:12.276Z,99.90
2018-05-16T08:28:39.932Z,99.90
2018-05-16T08:31:07.672Z,99.90
2018-05-16T08:33:35.288Z,99.90
2018-05-16T08:36:03.022Z,99.90
2018-05-16T08:38:30.694Z,99.90
2018-05-16T08:40:58.375Z,99.90
2018-05-16T08:43:26.828Z,99.90
2018-05-16T08:45:54.710Z,99.90
2018-05-16T08:48:22.433Z,99.90
2018-05-16T08:50:50.196Z,99.90
2018-05-16T08:53:17.966Z,99.90
2018-05-16T08:55:45.638Z,99.90
2018-05-16T08:58:13.409Z,99.90
2018-05-16T09:00:41.189Z,99.90
2018-05-16T09:03:08.827Z,99.90
2018-05-16T09:05:36.592Z,99.90
2018-05-16T09:08:04.253Z,99.90
2018-05-16T09:10:31.925Z,99.90
2018-05-16T09:12:59.590Z,99.90
2018-05-16T09:15:27.341Z,99.90
2018-05-16T09:17:55.010Z,99.90
2018-05-16T09:20:22.770Z,99.90
2018-05-16T09:22:50.533Z,99.90
2018-05-16T09:25:18.225Z,99.90
2018-05-16T09:27:45.890Z,99.90
2018-05-16T09:30:13.591Z,99.90
2018-05-16T09:32:42.037Z,99.90
2018-05-16T09:35:09.765Z,99.90
2018-05-16T09:37:37.429Z,99.90
2018-05-16T09:40:05.113Z,99.90
2018-05-16T09:42:32.889Z,99.90
2018-05-16T09:45:00.634Z,99.90
2018-05-16T09:47:28.318Z,99.90
2018-05-16T09:49:56.001Z,99.90
2018-05-16T09:52:23.689Z,99.90
2018-05-16T09:54:51.361Z,99.90
2018-05-16T09:57:19.141Z,99.90
2018-05-16T09:59:46.786Z,99.90
2018-05-16T10:02:14.458Z,99.90
2018-05-16T10:04:42.130Z,99.90
2018-05-16T10:07:09.894Z,99.90
2018-05-16T10:09:37.532Z,99.90
2018-05-16T10:12:05.366Z,99.90
2018-05-16T10:14:32.994Z,99.90
2018-05-16T10:17:00.844Z,99.90
2018-05-16T10:19:28.421Z,99.90
2018-05-16T10:21:56.102Z,99.90
2018-05-16T10:24:23.857Z,99.90
2018-05-16T10:26:51.538Z,99.90
2018-05-16T10:29:19.204Z,99.90
2018-05-16T10:31:46.899Z,99.90
2018-05-16T10:34:14.560Z,99.90
2018-05-16T10:36:42.306Z,99.90
2018-05-16T10:39:10.048Z,99.90
2018-05-16T10:41:37.736Z,99.90
2018-05-16T10:44:05.392Z,99.90
2018-05-16T10:46:33.087Z,99.90
2018-05-16T10:49:01.523Z,99.90
2018-05-16T10:51:29.307Z,99.90
2018-05-16T10:53:56.947Z,99.90
2018-05-16T10:56:24.716Z,99.90
2018-05-16T10:58:52.402Z,99.90
2018-05-16T11:01:20.187Z,99.90
2018-05-16T11:03:48.621Z,99.90
2018-05-16T11:06:16.308Z,99.90
2018-05-16T11:08:43.968Z,99.90
2018-05-16T11:11:11.654Z,99.90
2018-05-16T11:13:39.318Z,99.90
2018-05-16T11:16:07.020Z,99.90
2018-05-16T11:18:34.721Z,99.90
2018-05-16T11:21:02.467Z,99.90
2018-05-16T11:23:30.229Z,99.90
2018-05-16T11:25:57.892Z,99.90
2018-05-16T11:28:25.586Z,99.90
2018-05-16T11:30:53.345Z,99.90
2018-05-16T11:33:20.989Z,99.90
2018-05-16T11:35:49.081Z,99.90
2018-05-16T11:38:16.810Z,99.90
2018-05-16T11:40:44.507Z,99.90
2018-05-16T11:43:12.165Z,99.90
2018-05-16T11:45:39.898Z,99.90
2018-05-16T11:48:07.662Z,99.90
2018-05-16T11:50:35.325Z,99.90
2018-05-16T11:53:03.022Z,99.90
2018-05-16T11:55:30.682Z,99.90
2018-05-16T11:57:58.455Z,99.20
2018-05-16T12:00:26.193Z,99.90
2018-05-16T12:02:53.926Z,99.30
2018-05-16T12:05:21.605Z,97.50
2018-05-16T12:07:49.299Z,96.00
2018-05-16T12:10:16.969Z,96.20
2018-05-16T12:12:44.717Z,96.10
2018-05-16T12:15:12.364Z,94.30
2018-05-16T12:17:40.036Z,92.20
2018-05-16T12:20:07.722Z,89.40
2018-05-16T12:22:35.385Z,91.10
2018-05-16T12:25:03.133Z,84.20
2018-05-16T12:27:30.801Z,78.70
2018-05-16T12:29:58.471Z,79.20
2018-05-16T12:32:26.157Z,72.70
2018-05-16T12:34:53.830Z,72.20
2018-05-16T12:37:21.497Z,69.70
2018-05-16T12:39:49.452Z,66.80
2018-05-16T12:42:17.128Z,66.50
2018-05-16T12:44:44.796Z,68.00
2018-05-16T12:47:13.233Z,60.60
2018-05-16T12:49:40.975Z,60.40
2018-05-16T12:52:08.737Z,57.80
2018-05-16T12:54:36.518Z,58.60
2018-05-16T12:57:04.189Z,60.00
2018-05-16T12:59:31.876Z,58.70
2018-05-16T13:02:00.409Z,55.10
2018-05-16T13:04:28.098Z,55.10
2018-05-16T13:06:55.896Z,51.70
2018-05-16T13:09:23.527Z,50.30
2018-05-16T13:11:51.406Z,51.50
2018-05-16T13:14:19.085Z,53.10
2018-05-16T13:16:46.754Z,50.10
2018-05-16T13:19:14.439Z,49.70
2018-05-16T13:21:42.998Z,50.20
2018-05-16T13:24:10.640Z,50.30
2018-05-16T13:26:38.399Z,51.10
2018-05-16T13:29:06.082Z,49.50
2018-05-16T13:31:33.754Z,46.60
2018-05-16T13:34:01.594Z,45.80
2018-05-16T13:36:29.364Z,43.40
2018-05-16T13:38:57.022Z,42.70
2018-05-16T13:41:24.767Z,45.20
2018-05-16T13:43:52.520Z,45.20
2018-05-16T13:46:20.306Z,46.60
2018-05-16T13:48:47.885Z,46.80
2018-05-16T13:51:15.609Z,46.70
2018-05-16T13:53:43.290Z,46.10
2018-05-16T13:56:10.945Z,47.70
2018-05-16T13:58:38.713Z,48.60
2018-05-16T14:01:06.380Z,50.70
2018-05-16T14:03:34.066Z,52.30
2018-05-16T14:06:01.862Z,53.90
2018-05-16T14:08:29.570Z,56.00
2018-05-16T14:10:57.285Z,56.50
2018-05-16T14:13:25.025Z,57.60
2018-05-16T14:15:52.717Z,57.40
2018-05-16T14:18:21.162Z,55.80
2018-05-16T14:20:48.936Z,55.80
2018-05-16T14:23:16.588Z,56.10
2018-05-16T14:25:44.259Z,55.30
2018-05-16T14:28:12.003Z,56.00
2018-05-16T14:30:39.687Z,56.70
2018-05-16T14:33:07.453Z,57.60
2018-05-16T14:35:35.136Z,57.90
2018-05-16T14:38:02.785Z,53.80
2018-05-16T14:40:30.541Z,53.30
2018-05-16T14:42:58.252Z,53.20
2018-05-16T14:45:25.929Z,55.90
2018-05-16T14:47:53.619Z,56.50
2018-05-16T14:50:21.369Z,57.80
2018-05-16T14:52:49.129Z,57.40
2018-05-16T14:55:16.823Z,59.30
2018-05-16T14:57:44.490Z,60.20
2018-05-16T15:00:12.235Z,59.40
2018-05-16T15:02:40.025Z,59.70
2018-05-16T15:05:07.681Z,60.40
2018-05-16T15:07:35.412Z,62.10
2018-05-16T15:10:03.097Z,60.60
2018-05-16T15:12:30.874Z,59.30
2018-05-16T15:14:58.522Z,59.30
2018-05-16T15:17:26.287Z,59.50
2018-05-16T15:19:53.965Z,59.50
2018-05-16T15:22:21.712Z,58.90
2018-05-16T15:24:49.510Z,61.90
2018-05-16T15:27:17.277Z,60.30
2018-05-16T15:29:45.004Z,60.30
2018-05-16T15:32:12.780Z,60.00
2018-05-16T15:34:40.545Z,60.80
2018-05-16T15:37:08.335Z,62.80
2018-05-16T15:39:36.066Z,61.20
2018-05-16T15:42:03.839Z,61.60
2018-05-16T15:44:31.525Z,64.10
2018-05-16T15:46:59.294Z,63.50
2018-05-16T15:49:26.941Z,64.10
2018-05-16T15:51:54.621Z,63.60
2018-05-16T15:54:22.346Z,66.10
2018-05-16T15:56:50.034Z,66.80
2018-05-16T15:59:17.793Z,68.30
2018-05-16T16:01:45.479Z,70.30
2018-05-16T16:04:13.216Z,71.30
2018-05-16T16:06:40.900Z,70.30
2018-05-16T16:09:08.565Z,70.50
2018-05-16T16:11:36.343Z,70.80
2018-05-16T16:14:03.988Z,69.70
2018-05-16T16:16:31.752Z,69.70
2018-05-16T16:18:59.410Z,70.20
2018-05-16T16:21:27.179Z,69.60
2018-05-16T16:23:54.846Z,68.00
2018-05-16T16:26:23.300Z,66.60
2018-05-16T16:28:50.979Z,66.70
2018-05-16T16:31:18.800Z,64.80
2018-05-16T16:33:46.410Z,65.20
2018-05-16T16:36:14.126Z,65.00
2018-05-16T16:38:41.790Z,64.40
2018-05-16T16:41:09.463Z,64.90
2018-05-16T16:43:37.901Z,66.40
2018-05-16T16:46:05.650Z,66.30
2018-05-16T16:48:33.331Z,67.90
2018-05-16T16:53:39.492Z,70.10
2018-05-16T16:56:07.407Z,70.10
2018-05-16T16:58:35.135Z,71.00
2018-05-16T17:01:02.798Z,72.40
2018-05-16T17:03:31.247Z,73.20
2018-05-16T17:05:59.105Z,73.20
2018-05-16T17:08:26.796Z,74.40
2018-05-16T17:10:55.251Z,72.20
2018-05-16T17:13:22.999Z,72.20
2018-05-16T17:15:50.706Z,74.00
2018-05-16T17:18:18.408Z,74.30
2018-05-16T17:20:46.079Z,76.20
2018-05-16T17:23:13.834Z,76.20
2018-05-16T17:25:41.530Z,76.50
2018-05-16T17:28:09.190Z,77.60
2018-05-16T17:30:36.858Z,78.70
2018-05-16T17:33:04.602Z,78.90
2018-05-16T17:35:32.326Z,80.50
2018-05-16T17:38:00.926Z,82.60
2018-05-16T17:40:29.735Z,82.50
2018-05-16T17:42:57.657Z,83.90
2018-05-16T17:45:25.369Z,84.40
2018-05-16T17:47:53.124Z,85.10
2018-05-16T17:50:20.853Z,86.50
2018-05-16T17:52:48.556Z,87.90
2018-05-16T17:55:16.320Z,88.40
2018-05-16T17:57:44.082Z,89.60
2018-05-16T18:00:11.745Z,90.50
2018-05-16T18:02:39.450Z,90.00
2018-05-16T18:05:07.109Z,90.90
2018-05-16T18:07:34.805Z,91.20
2018-05-16T18:10:03.339Z,92.00
2018-05-16T18:12:31.083Z,92.00
2018-05-16T18:15:04.671Z,93.20
2018-05-16T18:17:32.528Z,93.70
2018-05-16T18:20:00.250Z,95.30
2018-05-16T18:22:27.942Z,97.40
2018-05-16T18:24:55.601Z,98.50
2018-05-16T18:27:24.056Z,99.90
2018-05-16T18:29:51.818Z,99.90
2018-05-16T18:32:19.556Z,99.90
2018-05-16T18:34:47.221Z,99.90
2018-05-16T18:37:14.887Z,99.90
2018-05-16T18:39:42.641Z,99.90
2018-05-16T18:42:10.301Z,99.90
2018-05-16T18:44:37.985Z,99.90
2018-05-16T18:47:05.756Z,99.90
2018-05-16T18:49:33.433Z,99.90
2018-05-16T18:52:01.194Z,99.90
2018-05-16T18:54:28.961Z,99.90
2018-05-16T18:56:56.631Z,99.90
2018-05-16T18:59:24.418Z,99.90
2018-05-16T19:01:52.056Z,99.90
2018-05-16T19:04:19.793Z,99.90
2018-05-16T19:06:47.489Z,99.90
2018-05-16T19:09:15.185Z,99.90
2018-05-16T19:11:43.763Z,99.90
2018-05-16T19:14:11.426Z,99.90
2018-05-16T19:16:39.866Z,99.90
2018-05-16T19:19:07.644Z,99.90
2018-05-16T19:21:35.278Z,99.90
2018-05-16T19:24:03.046Z,99.90
2018-05-16T19:26:30.717Z,99.90
2018-05-16T19:28:58.453Z,99.90
2018-05-16T19:31:26.137Z,99.90
2018-05-16T19:33:53.889Z,99.90
2018-05-16T19:36:21.561Z,99.90
2018-05-16T19:38:49.316Z,99.90
2018-05-16T19:41:16.983Z,99.90
2018-05-16T19:43:44.669Z,99.90
2018-05-16T19:46:12.336Z,99.90
2018-05-16T19:48:40.061Z,99.90
2018-05-16T19:51:07.739Z,99.90
2018-05-16T19:53:35.450Z,99.90
2018-05-16T19:56:04.643Z,99.90
2018-05-16T19:58:32.345Z,99.90
2018-05-16T20:00:59.986Z,99.90
2018-05-16T20:03:28.442Z,99.90
2018-05-16T20:05:56.185Z,99.90
2018-05-16T20:08:23.864Z,99.90
2018-05-16T20:10:51.531Z,99.90
2018-05-16T20:13:19.218Z,99.90
2018-05-16T20:15:46.893Z,99.90
2018-05-16T20:18:15.363Z,99.90
2018-05-16T20:20:43.030Z,99.90
2018-05-16T20:23:11.469Z,99.90
2018-05-16T20:25:39.149Z,99.90
2018-05-16T20:28:06.878Z,99.90
2018-05-16T20:30:34.570Z,99.90
2018-05-16T20:33:02.259Z,99.90
2018-05-16T20:35:29.970Z,99.90
2018-05-16T20:37:57.638Z,99.90
2018-05-16T20:40:25.331Z,99.90
2018-05-16T20:42:53.006Z,99.90
2018-05-16T20:45:20.729Z,99.90
2018-05-16T20:47:48.389Z,99.90
2018-05-16T20:50:16.081Z,99.90
2018-05-16T20:52:43.751Z,99.90
2018-05-16T20:55:11.435Z,99.90
2018-05-16T20:57:39.871Z,99.90
2018-05-16T21:00:07.553Z,99.90
2018-05-16T21:02:35.312Z,99.90
2018-05-16T21:05:02.972Z,99.90
2018-05-16T21:07:30.698Z,99.90
2018-05-16T21:09:58.575Z,99.90
2018-05-16T21:12:26.185Z,99.90
2018-05-16T21:14:53.886Z,99.90
2018-05-16T21:17:21.571Z,99.90
2018-05-16T21:19:49.339Z,99.90
2018-05-16T21:22:17.094Z,99.90
2018-05-16T21:24:44.833Z,99.90
2018-05-16T21:27:12.496Z,99.90
2018-05-16T21:29:41.142Z,99.90
2018-05-16T21:32:08.839Z,99.90
2018-05-16T21:34:37.387Z,99.90
2018-05-16T21:37:05.031Z,99.90
2018-05-16T21:39:32.781Z,99.90
2018-05-16T21:42:00.449Z,99.90
2018-05-16T21:44:28.212Z,99.90
2018-05-16T21:46:55.985Z,99.90
2018-05-16T21:49:24.001Z,99.90
2018-05-16T21:51:51.661Z,99.90
2018-05-16T21:54:19.326Z,99.90
2018-05-16T21:56:47.134Z,99.90
2018-05-16T21:59:14.707Z,99.90
2018-05-16T22:01:42.399Z,99.90
2018-05-16T22:04:10.067Z,99.90
2018-05-16T22:06:37.761Z,99.90
2018-05-16T22:09:06.192Z,99.90
2018-05-16T22:11:33.874Z,99.90
2018-05-16T22:14:01.542Z,99.90
2018-05-16T22:16:29.326Z,99.90
2018-05-16T22:18:57.759Z,99.90
2018-05-16T22:21:25.544Z,99.90
2018-05-16T22:23:53.203Z,99.90
2018-05-16T22:26:20.876Z,99.90
2018-05-16T22:28:48.592Z,99.90
2018-05-16T22:31:22.181Z,99.90
2018-05-16T22:33:55.745Z,99.90
2018-05-16T22:36:29.304Z,99.90
2018-05-16T22:39:02.775Z,99.90
2018-05-16T22:41:37.084Z,99.90
2018-05-16T22:44:14.550Z,99.90
2018-05-16T22:46:42.277Z,99.90
2018-05-16T22:49:09.946Z,99.90
2018-05-16T22:51:37.634Z,99.90
2018-05-16T22:54:05.363Z,99.90
2018-05-16T22:56:33.061Z,99.90
2018-05-16T22:59:00.726Z,99.90
2018-05-16T23:01:28.465Z,99.90
2018-05-16T23:03:56.253Z,99.90
2018-05-16T23:06:23.932Z,99.90
2018-05-16T23:08:51.605Z,99.90
2018-05-16T23:11:19.278Z,99.90
2018-05-16T23:13:47.796Z,99.90
2018-05-16T23:16:15.473Z,99.90
2018-05-16T23:18:43.150Z,99.90
2018-05-16T23:21:10.835Z,99.90
2018-05-16T23:23:38.500Z,99.90
2018-05-16T23:26:06.208Z,99.90
2018-05-16T23:28:33.901Z,99.90
2018-05-16T23:31:01.576Z,99.90
2018-05-16T23:33:29.254Z,99.90
2018-05-16T23:35:56.953Z,99.90
2018-05-16T23:38:24.621Z,99.90
2018-05-16T23:40:52.301Z,99.90
2018-05-16T23:43:20.054Z,99.90
2018-05-16T23:45:47.753Z,99.90
2018-05-16T23:48:15.412Z,99.90
2018-05-16T23:50:43.076Z,99.90
2018-05-16T23:53:10.761Z,99.90
2018-05-16T23:55:38.431Z,99.90
2018-05-16T23:58:06.948Z,99.90
